sensor_id;sensor_type;location;lat;lon;timestamp;temperature;humidity
37806;DHT22;25082;50.870;0.022;2024-02-26T00:01:43;19.20;57.80
37806;DHT22;25082;50.870;0.022;2024-02-26T00:04:09;19.30;57.70
37806;DHT22;25082;50.870;0.022;2024-02-26T00:06:35;19.20;57.60
37806;DHT22;25082;50.870;0.022;2024-02-26T00:09:02;19.20;57.70
37806;DHT22;25082;50.870;0.022;2024-02-26T00:11:31;19.20;57.70
37806;DHT22;25082;50.870;0.022;2024-02-26T00:13:57;19.20;57.80
37806;DHT22;25082;50.870;0.022;2024-02-26T00:16:23;19.20;57.70
37806;DHT22;25082;50.870;0.022;2024-02-26T00:18:49;19.10;57.60
37806;DHT22;25082;50.870;0.022;2024-02-26T00:21:15;19.10;57.70
37806;DHT22;25082;50.870;0.022;2024-02-26T00:23:41;19.10;57.60
37806;DHT22;25082;50.870;0.022;2024-02-26T00:26:06;19.10;57.60
37806;DHT22;25082;50.870;0.022;2024-02-26T00:28:33;19.10;57.50
37806;DHT22;25082;50.870;0.022;2024-02-26T00:30:59;19.10;57.60
37806;DHT22;25082;50.870;0.022;2024-02-26T00:33:25;19.00;57.50
37806;DHT22;25082;50.870;0.022;2024-02-26T00:35:51;19.00;57.50
37806;DHT22;25082;50.870;0.022;2024-02-26T00:38:16;19.00;57.50
37806;DHT22;25082;50.870;0.022;2024-02-26T00:40:42;19.00;57.60
37806;DHT22;25082;50.870;0.022;2024-02-26T00:43:08;19.00;57.50
37806;DHT22;25082;50.870;0.022;2024-02-26T00:45:33;19.00;57.50
37806;DHT22;25082;50.870;0.022;2024-02-26T00:47:59;19.00;57.50
37806;DHT22;25082;50.870;0.022;2024-02-26T00:50:31;19.00;57.50
37806;DHT22;25082;50.870;0.022;2024-02-26T00:52:57;19.00;57.50
37806;DHT22;25082;50.870;0.022;2024-02-26T00:55:23;18.90;57.50
37806;DHT22;25082;50.870;0.022;2024-02-26T00:57:48;18.90;57.50
37806;DHT22;25082;50.870;0.022;2024-02-26T01:00:14;18.90;57.50
37806;DHT22;25082;50.870;0.022;2024-02-26T01:02:41;18.90;57.50
37806;DHT22;25082;50.870;0.022;2024-02-26T01:05:08;18.90;57.50
37806;DHT22;25082;50.870;0.022;2024-02-26T01:07:37;18.80;57.40
37806;DHT22;25082;50.870;0.022;2024-02-26T01:10:03;18.90;57.60
37806;DHT22;25082;50.870;0.022;2024-02-26T01:12:34;18.80;57.40
37806;DHT22;25082;50.870;0.022;2024-02-26T01:15:03;18.80;57.50
37806;DHT22;25082;50.870;0.022;2024-02-26T01:17:29;18.80;57.40
37806;DHT22;25082;50.870;0.022;2024-02-26T01:19:55;18.80;57.60
37806;DHT22;25082;50.870;0.022;2024-02-26T01:22:21;18.80;57.60
37806;DHT22;25082;50.870;0.022;2024-02-26T01:24:47;18.80;57.60
37806;DHT22;25082;50.870;0.022;2024-02-26T01:27:13;18.80;57.50
37806;DHT22;25082;50.870;0.022;2024-02-26T01:29:42;18.80;57.60
37806;DHT22;25082;50.870;0.022;2024-02-26T01:32:08;18.70;57.60
37806;DHT22;25082;50.870;0.022;2024-02-26T01:34:34;18.80;57.60
37806;DHT22;25082;50.870;0.022;2024-02-26T01:37:00;18.70;57.50
37806;DHT22;25082;50.870;0.022;2024-02-26T01:39:26;18.70;57.50
37806;DHT22;25082;50.870;0.022;2024-02-26T01:41:53;18.70;57.50
37806;DHT22;25082;50.870;0.022;2024-02-26T01:44:19;18.70;57.60
37806;DHT22;25082;50.870;0.022;2024-02-26T01:46:44;18.70;57.50
37806;DHT22;25082;50.870;0.022;2024-02-26T01:49:11;18.70;57.60
37806;DHT22;25082;50.870;0.022;2024-02-26T01:51:39;18.70;57.60
37806;DHT22;25082;50.870;0.022;2024-02-26T01:54:06;18.60;57.60
37806;DHT22;25082;50.870;0.022;2024-02-26T01:56:34;18.60;57.50
37806;DHT22;25082;50.870;0.022;2024-02-26T01:59:01;18.60;57.60
37806;DHT22;25082;50.870;0.022;2024-02-26T02:01:29;18.60;57.60
37806;DHT22;25082;50.870;0.022;2024-02-26T02:03:57;18.60;57.60
37806;DHT22;25082;50.870;0.022;2024-02-26T02:06:23;18.60;57.60
37806;DHT22;25082;50.870;0.022;2024-02-26T02:08:49;18.60;58.10
37806;DHT22;25082;50.870;0.022;2024-02-26T02:11:16;18.60;57.60
37806;DHT22;25082;50.870;0.022;2024-02-26T02:13:42;18.60;57.50
37806;DHT22;25082;50.870;0.022;2024-02-26T02:16:09;18.60;57.50
37806;DHT22;25082;50.870;0.022;2024-02-26T02:18:34;18.50;57.50
37806;DHT22;25082;50.870;0.022;2024-02-26T02:21:01;18.50;57.50
37806;DHT22;25082;50.870;0.022;2024-02-26T02:23:27;18.50;57.50
37806;DHT22;25082;50.870;0.022;2024-02-26T02:25:53;18.50;57.50
37806;DHT22;25082;50.870;0.022;2024-02-26T02:28:20;18.50;57.50
37806;DHT22;25082;50.870;0.022;2024-02-26T02:30:47;18.50;57.50
37806;DHT22;25082;50.870;0.022;2024-02-26T02:33:15;18.50;57.60
37806;DHT22;25082;50.870;0.022;2024-02-26T02:35:41;18.40;57.50
37806;DHT22;25082;50.870;0.022;2024-02-26T02:38:07;18.50;57.60
37806;DHT22;25082;50.870;0.022;2024-02-26T02:40:32;18.40;57.50
37806;DHT22;25082;50.870;0.022;2024-02-26T02:42:58;18.40;57.40
37806;DHT22;25082;50.870;0.022;2024-02-26T02:45:25;18.40;57.50
37806;DHT22;25082;50.870;0.022;2024-02-26T02:47:51;18.40;57.50
37806;DHT22;25082;50.870;0.022;2024-02-26T02:50:17;18.40;57.50
37806;DHT22;25082;50.870;0.022;2024-02-26T02:52:43;18.40;57.40
37806;DHT22;25082;50.870;0.022;2024-02-26T02:55:09;18.40;57.50
37806;DHT22;25082;50.870;0.022;2024-02-26T02:57:35;18.40;57.50
37806;DHT22;25082;50.870;0.022;2024-02-26T03:00:09;18.40;57.60
37806;DHT22;25082;50.870;0.022;2024-02-26T03:02:35;18.40;57.50
37806;DHT22;25082;50.870;0.022;2024-02-26T03:05:05;18.30;57.50
37806;DHT22;25082;50.870;0.022;2024-02-26T03:07:31;18.30;57.50
37806;DHT22;25082;50.870;0.022;2024-02-26T03:09:57;18.30;57.50
37806;DHT22;25082;50.870;0.022;2024-02-26T03:12:23;18.30;57.50
37806;DHT22;25082;50.870;0.022;2024-02-26T03:14:49;18.30;57.80
37806;DHT22;25082;50.870;0.022;2024-02-26T03:17:14;18.30;57.60
37806;DHT22;25082;50.870;0.022;2024-02-26T03:19:40;18.30;57.60
37806;DHT22;25082;50.870;0.022;2024-02-26T03:22:07;18.30;57.60
37806;DHT22;25082;50.870;0.022;2024-02-26T03:24:33;18.30;57.60
37806;DHT22;25082;50.870;0.022;2024-02-26T03:26:58;18.30;57.60
37806;DHT22;25082;50.870;0.022;2024-02-26T03:29:24;18.20;57.50
37806;DHT22;25082;50.870;0.022;2024-02-26T03:31:50;18.20;57.60
37806;DHT22;25082;50.870;0.022;2024-02-26T03:34:16;18.20;57.60
37806;DHT22;25082;50.870;0.022;2024-02-26T03:36:43;18.20;57.50
37806;DHT22;25082;50.870;0.022;2024-02-26T03:39:09;18.20;57.50
37806;DHT22;25082;50.870;0.022;2024-02-26T03:41:35;18.20;57.60
37806;DHT22;25082;50.870;0.022;2024-02-26T03:44:01;18.20;57.50
37806;DHT22;25082;50.870;0.022;2024-02-26T03:46:27;18.20;57.60
37806;DHT22;25082;50.870;0.022;2024-02-26T03:48:53;18.10;57.50
37806;DHT22;25082;50.870;0.022;2024-02-26T03:51:19;18.10;57.50
37806;DHT22;25082;50.870;0.022;2024-02-26T03:53:45;18.10;57.50
37806;DHT22;25082;50.870;0.022;2024-02-26T03:56:13;18.10;57.50
37806;DHT22;25082;50.870;0.022;2024-02-26T03:58:39;18.10;57.60
37806;DHT22;25082;50.870;0.022;2024-02-26T04:01:08;18.10;57.60
37806;DHT22;25082;50.870;0.022;2024-02-26T04:03:34;18.10;57.60
37806;DHT22;25082;50.870;0.022;2024-02-26T04:06:00;18.10;57.60
37806;DHT22;25082;50.870;0.022;2024-02-26T04:08:26;18.10;57.60
37806;DHT22;25082;50.870;0.022;2024-02-26T04:10:52;18.10;58.20
37806;DHT22;25082;50.870;0.022;2024-02-26T04:13:18;18.00;57.60
37806;DHT22;25082;50.870;0.022;2024-02-26T04:15:44;18.10;57.60
37806;DHT22;25082;50.870;0.022;2024-02-26T04:18:10;18.10;57.60
37806;DHT22;25082;50.870;0.022;2024-02-26T04:20:35;18.00;57.50
37806;DHT22;25082;50.870;0.022;2024-02-26T04:23:03;18.00;57.60
37806;DHT22;25082;50.870;0.022;2024-02-26T04:25:28;18.00;57.60
37806;DHT22;25082;50.870;0.022;2024-02-26T04:27:54;18.00;57.60
37806;DHT22;25082;50.870;0.022;2024-02-26T04:30:20;18.00;57.50
37806;DHT22;25082;50.870;0.022;2024-02-26T04:32:46;18.00;57.50
37806;DHT22;25082;50.870;0.022;2024-02-26T04:35:11;17.90;57.50
37806;DHT22;25082;50.870;0.022;2024-02-26T04:37:37;18.00;57.50
37806;DHT22;25082;50.870;0.022;2024-02-26T04:40:04;18.00;57.60
37806;DHT22;25082;50.870;0.022;2024-02-26T04:42:29;17.90;57.50
37806;DHT22;25082;50.870;0.022;2024-02-26T04:44:55;17.90;57.50
37806;DHT22;25082;50.870;0.022;2024-02-26T04:47:21;17.90;57.50
37806;DHT22;25082;50.870;0.022;2024-02-26T04:49:51;17.90;57.60
37806;DHT22;25082;50.870;0.022;2024-02-26T04:52:18;17.90;57.60
37806;DHT22;25082;50.870;0.022;2024-02-26T04:54:44;17.90;57.60
37806;DHT22;25082;50.870;0.022;2024-02-26T04:57:10;17.90;57.50
37806;DHT22;25082;50.870;0.022;2024-02-26T04:59:35;17.80;57.50
37806;DHT22;25082;50.870;0.022;2024-02-26T05:02:01;17.80;57.50
37806;DHT22;25082;50.870;0.022;2024-02-26T05:04:27;17.90;57.50
37806;DHT22;25082;50.870;0.022;2024-02-26T05:06:53;17.80;57.50
37806;DHT22;25082;50.870;0.022;2024-02-26T05:09:19;17.80;58.10
37806;DHT22;25082;50.870;0.022;2024-02-26T05:11:45;17.80;57.70
37806;DHT22;25082;50.870;0.022;2024-02-26T05:14:11;17.80;57.60
37806;DHT22;25082;50.870;0.022;2024-02-26T05:16:36;17.80;57.60
37806;DHT22;25082;50.870;0.022;2024-02-26T05:19:02;17.80;57.50
37806;DHT22;25082;50.870;0.022;2024-02-26T05:21:28;17.80;57.60
37806;DHT22;25082;50.870;0.022;2024-02-26T05:23:54;17.80;57.60
37806;DHT22;25082;50.870;0.022;2024-02-26T05:26:23;17.70;57.60
37806;DHT22;25082;50.870;0.022;2024-02-26T05:28:49;17.70;57.60
37806;DHT22;25082;50.870;0.022;2024-02-26T05:31:15;17.70;57.60
37806;DHT22;25082;50.870;0.022;2024-02-26T05:33:41;17.70;57.60
37806;DHT22;25082;50.870;0.022;2024-02-26T05:36:08;17.70;57.60
37806;DHT22;25082;50.870;0.022;2024-02-26T05:38:33;17.70;57.60
37806;DHT22;25082;50.870;0.022;2024-02-26T05:41:00;17.70;57.60
37806;DHT22;25082;50.870;0.022;2024-02-26T05:43:26;17.70;57.50
37806;DHT22;25082;50.870;0.022;2024-02-26T05:45:52;17.70;57.60
37806;DHT22;25082;50.870;0.022;2024-02-26T05:48:18;17.70;57.70
37806;DHT22;25082;50.870;0.022;2024-02-26T05:50:45;17.70;57.70
37806;DHT22;25082;50.870;0.022;2024-02-26T05:53:11;17.60;57.70
37806;DHT22;25082;50.870;0.022;2024-02-26T05:55:37;17.60;57.50
37806;DHT22;25082;50.870;0.022;2024-02-26T05:58:03;17.60;57.60
37806;DHT22;25082;50.870;0.022;2024-02-26T06:00:29;17.60;57.60
37806;DHT22;25082;50.870;0.022;2024-02-26T06:02:55;17.60;57.60
37806;DHT22;25082;50.870;0.022;2024-02-26T06:05:21;17.60;57.60
37806;DHT22;25082;50.870;0.022;2024-02-26T06:07:47;17.60;57.60
37806;DHT22;25082;50.870;0.022;2024-02-26T06:10:13;17.60;57.70
37806;DHT22;25082;50.870;0.022;2024-02-26T06:12:39;17.60;57.70
37806;DHT22;25082;50.870;0.022;2024-02-26T06:15:06;17.60;57.60
37806;DHT22;25082;50.870;0.022;2024-02-26T06:17:32;17.50;57.50
37806;DHT22;25082;50.870;0.022;2024-02-26T06:19:59;17.60;57.50
37806;DHT22;25082;50.870;0.022;2024-02-26T06:22:25;17.60;57.60
37806;DHT22;25082;50.870;0.022;2024-02-26T06:24:51;17.60;57.60
37806;DHT22;25082;50.870;0.022;2024-02-26T06:27:17;17.50;57.60
37806;DHT22;25082;50.870;0.022;2024-02-26T06:29:43;17.50;57.50
37806;DHT22;25082;50.870;0.022;2024-02-26T06:32:09;17.50;57.60
37806;DHT22;25082;50.870;0.022;2024-02-26T06:34:35;17.50;57.60
37806;DHT22;25082;50.870;0.022;2024-02-26T06:37:01;17.50;57.60
37806;DHT22;25082;50.870;0.022;2024-02-26T06:39:26;17.50;57.50
37806;DHT22;25082;50.870;0.022;2024-02-26T06:41:52;17.50;57.50
37806;DHT22;25082;50.870;0.022;2024-02-26T06:44:25;17.50;57.50
37806;DHT22;25082;50.870;0.022;2024-02-26T06:46:52;17.50;57.60
37806;DHT22;25082;50.870;0.022;2024-02-26T06:49:18;17.50;57.50
37806;DHT22;25082;50.870;0.022;2024-02-26T06:51:44;17.50;57.50
37806;DHT22;25082;50.870;0.022;2024-02-26T06:54:10;17.40;57.50
37806;DHT22;25082;50.870;0.022;2024-02-26T06:56:35;17.40;57.50
37806;DHT22;25082;50.870;0.022;2024-02-26T06:59:01;17.40;57.50
37806;DHT22;25082;50.870;0.022;2024-02-26T07:01:27;17.40;57.40
37806;DHT22;25082;50.870;0.022;2024-02-26T07:03:53;17.40;57.40
37806;DHT22;25082;50.870;0.022;2024-02-26T07:06:18;17.40;57.50
37806;DHT22;25082;50.870;0.022;2024-02-26T07:08:44;17.40;57.40
37806;DHT22;25082;50.870;0.022;2024-02-26T07:11:10;17.40;57.40
37806;DHT22;25082;50.870;0.022;2024-02-26T07:13:36;17.40;57.40
37806;DHT22;25082;50.870;0.022;2024-02-26T07:16:02;17.30;57.40
37806;DHT22;25082;50.870;0.022;2024-02-26T07:18:28;17.30;57.90
37806;DHT22;25082;50.870;0.022;2024-02-26T07:20:54;17.40;57.50
37806;DHT22;25082;50.870;0.022;2024-02-26T07:23:21;17.30;57.40
37806;DHT22;25082;50.870;0.022;2024-02-26T07:25:47;17.30;57.40
37806;DHT22;25082;50.870;0.022;2024-02-26T07:28:14;17.30;57.50
37806;DHT22;25082;50.870;0.022;2024-02-26T07:30:40;17.30;57.60
37806;DHT22;25082;50.870;0.022;2024-02-26T07:33:06;17.40;57.70
37806;DHT22;25082;50.870;0.022;2024-02-26T07:35:33;17.40;57.80
37806;DHT22;25082;50.870;0.022;2024-02-26T07:37:59;17.40;57.80
37806;DHT22;25082;50.870;0.022;2024-02-26T07:40:25;17.40;57.80
37806;DHT22;25082;50.870;0.022;2024-02-26T07:42:51;17.40;57.70
37806;DHT22;25082;50.870;0.022;2024-02-26T07:45:16;17.50;57.70
37806;DHT22;25082;50.870;0.022;2024-02-26T07:47:46;17.50;57.70
37806;DHT22;25082;50.870;0.022;2024-02-26T07:50:12;17.50;57.60
37806;DHT22;25082;50.870;0.022;2024-02-26T07:52:38;17.60;57.60
37806;DHT22;25082;50.870;0.022;2024-02-26T07:55:05;17.60;57.60
37806;DHT22;25082;50.870;0.022;2024-02-26T07:57:32;17.60;57.60
37806;DHT22;25082;50.870;0.022;2024-02-26T07:59:59;17.70;57.60
37806;DHT22;25082;50.870;0.022;2024-02-26T08:02:25;17.70;57.60
37806;DHT22;25082;50.870;0.022;2024-02-26T08:04:51;17.70;57.60
37806;DHT22;25082;50.870;0.022;2024-02-26T08:07:16;17.70;57.60
37806;DHT22;25082;50.870;0.022;2024-02-26T08:09:42;17.80;57.60
37806;DHT22;25082;50.870;0.022;2024-02-26T08:12:08;17.80;57.60
37806;DHT22;25082;50.870;0.022;2024-02-26T08:14:34;17.80;57.50
37806;DHT22;25082;50.870;0.022;2024-02-26T08:17:00;17.80;57.50
37806;DHT22;25082;50.870;0.022;2024-02-26T08:19:26;17.80;57.40
37806;DHT22;25082;50.870;0.022;2024-02-26T08:21:52;17.90;57.50
37806;DHT22;25082;50.870;0.022;2024-02-26T08:24:18;17.90;57.40
37806;DHT22;25082;50.870;0.022;2024-02-26T08:26:44;17.90;57.40
37806;DHT22;25082;50.870;0.022;2024-02-26T08:29:10;18.00;57.40
37806;DHT22;25082;50.870;0.022;2024-02-26T08:31:36;17.90;57.40
37806;DHT22;25082;50.870;0.022;2024-02-26T08:34:03;18.00;57.90
37806;DHT22;25082;50.870;0.022;2024-02-26T08:36:31;18.00;57.90
37806;DHT22;25082;50.870;0.022;2024-02-26T08:38:57;18.00;57.30
37806;DHT22;25082;50.870;0.022;2024-02-26T08:41:22;18.00;57.30
37806;DHT22;25082;50.870;0.022;2024-02-26T08:43:48;18.00;57.30
37806;DHT22;25082;50.870;0.022;2024-02-26T08:46:14;18.10;57.30
37806;DHT22;25082;50.870;0.022;2024-02-26T08:48:40;18.10;57.30
37806;DHT22;25082;50.870;0.022;2024-02-26T08:51:07;18.10;57.20
37806;DHT22;25082;50.870;0.022;2024-02-26T08:53:33;18.10;57.20
37806;DHT22;25082;50.870;0.022;2024-02-26T08:55:59;18.10;57.20
37806;DHT22;25082;50.870;0.022;2024-02-26T08:58:25;18.20;57.20
37806;DHT22;25082;50.870;0.022;2024-02-26T09:00:51;18.20;57.10
37806;DHT22;25082;50.870;0.022;2024-02-26T09:03:17;18.20;57.10
37806;DHT22;25082;50.870;0.022;2024-02-26T09:05:43;18.20;57.10
37806;DHT22;25082;50.870;0.022;2024-02-26T09:08:09;18.20;57.00
37806;DHT22;25082;50.870;0.022;2024-02-26T09:10:34;18.20;57.00
37806;DHT22;25082;50.870;0.022;2024-02-26T09:13:00;18.30;57.00
37806;DHT22;25082;50.870;0.022;2024-02-26T09:15:26;18.30;57.00
37806;DHT22;25082;50.870;0.022;2024-02-26T09:17:52;18.30;57.00
37806;DHT22;25082;50.870;0.022;2024-02-26T09:20:18;18.30;57.00
37806;DHT22;25082;50.870;0.022;2024-02-26T09:22:47;18.30;56.90
37806;DHT22;25082;50.870;0.022;2024-02-26T09:25:13;18.30;56.90
37806;DHT22;25082;50.870;0.022;2024-02-26T09:27:41;18.30;56.90
37806;DHT22;25082;50.870;0.022;2024-02-26T09:30:12;18.30;56.90
37806;DHT22;25082;50.870;0.022;2024-02-26T09:32:39;18.40;56.90
37806;DHT22;25082;50.870;0.022;2024-02-26T09:35:08;18.40;57.00
37806;DHT22;25082;50.870;0.022;2024-02-26T09:37:34;18.40;57.10
37806;DHT22;25082;50.870;0.022;2024-02-26T09:40:02;18.40;57.10
37806;DHT22;25082;50.870;0.022;2024-02-26T09:42:32;18.40;57.30
37806;DHT22;25082;50.870;0.022;2024-02-26T09:45:00;18.40;57.30
37806;DHT22;25082;50.870;0.022;2024-02-26T09:47:31;18.40;57.30
37806;DHT22;25082;50.870;0.022;2024-02-26T09:49:58;18.40;57.40
37806;DHT22;25082;50.870;0.022;2024-02-26T09:52:25;18.40;57.10
37806;DHT22;25082;50.870;0.022;2024-02-26T09:54:53;18.40;56.60
37806;DHT22;25082;50.870;0.022;2024-02-26T09:57:21;18.40;56.50
37806;DHT22;25082;50.870;0.022;2024-02-26T09:59:51;18.50;57.00
37806;DHT22;25082;50.870;0.022;2024-02-26T10:02:20;18.50;56.40
37806;DHT22;25082;50.870;0.022;2024-02-26T10:04:47;18.50;56.40
37806;DHT22;25082;50.870;0.022;2024-02-26T10:07:16;18.50;56.40
37806;DHT22;25082;50.870;0.022;2024-02-26T10:09:42;18.50;56.50
37806;DHT22;25082;50.870;0.022;2024-02-26T10:12:10;18.50;56.60
37806;DHT22;25082;50.870;0.022;2024-02-26T10:14:37;18.50;56.50
37806;DHT22;25082;50.870;0.022;2024-02-26T10:17:03;18.60;56.50
37806;DHT22;25082;50.870;0.022;2024-02-26T10:19:32;18.50;56.70
37806;DHT22;25082;50.870;0.022;2024-02-26T10:21:59;18.60;56.80
37806;DHT22;25082;50.870;0.022;2024-02-26T10:24:28;18.50;57.20
37806;DHT22;25082;50.870;0.022;2024-02-26T10:26:55;18.50;58.10
37806;DHT22;25082;50.870;0.022;2024-02-26T10:29:23;18.50;58.20
37806;DHT22;25082;50.870;0.022;2024-02-26T10:31:50;18.50;58.40
37806;DHT22;25082;50.870;0.022;2024-02-26T10:34:16;18.50;58.70
37806;DHT22;25082;50.870;0.022;2024-02-26T10:36:42;18.50;58.70
37806;DHT22;25082;50.870;0.022;2024-02-26T10:39:08;18.50;59.00
37806;DHT22;25082;50.870;0.022;2024-02-26T10:41:34;18.50;59.00
37806;DHT22;25082;50.870;0.022;2024-02-26T10:44:00;18.50;59.10
37806;DHT22;25082;50.870;0.022;2024-02-26T10:46:26;18.40;59.20
37806;DHT22;25082;50.870;0.022;2024-02-26T10:48:53;18.50;59.40
37806;DHT22;25082;50.870;0.022;2024-02-26T10:51:30;18.50;59.40
37806;DHT22;25082;50.870;0.022;2024-02-26T10:53:58;18.40;59.10
37806;DHT22;25082;50.870;0.022;2024-02-26T10:56:25;18.50;59.50
37806;DHT22;25082;50.870;0.022;2024-02-26T10:58:53;18.50;59.50
37806;DHT22;25082;50.870;0.022;2024-02-26T11:01:20;18.50;59.50
37806;DHT22;25082;50.870;0.022;2024-02-26T11:03:51;18.50;59.50
37806;DHT22;25082;50.870;0.022;2024-02-26T11:06:20;18.50;59.60
37806;DHT22;25082;50.870;0.022;2024-02-26T11:08:50;18.50;59.40
37806;DHT22;25082;50.870;0.022;2024-02-26T11:11:17;18.50;59.40
37806;DHT22;25082;50.870;0.022;2024-02-26T11:13:46;18.50;59.40
37806;DHT22;25082;50.870;0.022;2024-02-26T11:16:22;18.50;59.40
37806;DHT22;25082;50.870;0.022;2024-02-26T11:18:49;18.50;59.40
37806;DHT22;25082;50.870;0.022;2024-02-26T11:21:16;18.60;59.40
37806;DHT22;25082;50.870;0.022;2024-02-26T11:23:47;18.60;59.40
37806;DHT22;25082;50.870;0.022;2024-02-26T11:26:15;18.60;59.40
37806;DHT22;25082;50.870;0.022;2024-02-26T11:28:42;18.60;59.70
37806;DHT22;25082;50.870;0.022;2024-02-26T11:31:09;18.60;59.70
37806;DHT22;25082;50.870;0.022;2024-02-26T11:33:35;18.60;59.60
37806;DHT22;25082;50.870;0.022;2024-02-26T11:36:02;18.60;59.60
37806;DHT22;25082;50.870;0.022;2024-02-26T11:38:33;18.70;59.70
37806;DHT22;25082;50.870;0.022;2024-02-26T11:40:59;18.60;59.40
37806;DHT22;25082;50.870;0.022;2024-02-26T11:46:33;18.70;59.50
37806;DHT22;25082;50.870;0.022;2024-02-26T11:49:00;18.70;59.50
37806;DHT22;25082;50.870;0.022;2024-02-26T11:51:34;18.70;60.00
37806;DHT22;25082;50.870;0.022;2024-02-26T11:54:00;18.80;59.80
37806;DHT22;25082;50.870;0.022;2024-02-26T11:56:26;19.00;61.10
37806;DHT22;25082;50.870;0.022;2024-02-26T11:59:05;19.10;59.90
37806;DHT22;25082;50.870;0.022;2024-02-26T12:01:48;19.10;59.50
37806;DHT22;25082;50.870;0.022;2024-02-26T12:04:25;19.10;59.40
37806;DHT22;25082;50.870;0.022;2024-02-26T12:06:55;19.10;59.30
37806;DHT22;25082;50.870;0.022;2024-02-26T12:09:38;19.00;59.30
37806;DHT22;25082;50.870;0.022;2024-02-26T12:12:06;19.00;59.30
37806;DHT22;25082;50.870;0.022;2024-02-26T12:14:39;19.00;59.50
37806;DHT22;25082;50.870;0.022;2024-02-26T12:17:07;18.90;59.50
37806;DHT22;25082;50.870;0.022;2024-02-26T12:19:37;18.90;59.60
37806;DHT22;25082;50.870;0.022;2024-02-26T12:22:07;18.90;59.70
37806;DHT22;25082;50.870;0.022;2024-02-26T12:24:32;18.90;59.70
37806;DHT22;25082;50.870;0.022;2024-02-26T12:26:58;18.90;59.70
37806;DHT22;25082;50.870;0.022;2024-02-26T12:29:24;18.90;59.70
37806;DHT22;25082;50.870;0.022;2024-02-26T12:31:50;18.90;59.60
37806;DHT22;25082;50.870;0.022;2024-02-26T12:34:15;18.90;59.50
37806;DHT22;25082;50.870;0.022;2024-02-26T12:36:42;18.90;59.70
37806;DHT22;25082;50.870;0.022;2024-02-26T12:39:09;18.80;59.60
37806;DHT22;25082;50.870;0.022;2024-02-26T12:41:35;18.80;59.70
37806;DHT22;25082;50.870;0.022;2024-02-26T12:44:01;18.90;59.70
37806;DHT22;25082;50.870;0.022;2024-02-26T12:46:27;18.90;59.70
37806;DHT22;25082;50.870;0.022;2024-02-26T12:48:56;18.90;59.60
37806;DHT22;25082;50.870;0.022;2024-02-26T12:51:27;18.90;59.70
37806;DHT22;25082;50.870;0.022;2024-02-26T12:53:55;18.80;59.50
37806;DHT22;25082;50.870;0.022;2024-02-26T12:56:22;18.80;59.50
37806;DHT22;25082;50.870;0.022;2024-02-26T12:58:50;18.90;59.60
37806;DHT22;25082;50.870;0.022;2024-02-26T13:01:19;18.90;59.70
37806;DHT22;25082;50.870;0.022;2024-02-26T13:03:46;18.90;59.60
37806;DHT22;25082;50.870;0.022;2024-02-26T13:06:12;18.90;59.60
37806;DHT22;25082;50.870;0.022;2024-02-26T13:08:38;18.90;59.50
37806;DHT22;25082;50.870;0.022;2024-02-26T13:11:04;18.90;59.50
37806;DHT22;25082;50.870;0.022;2024-02-26T13:13:30;18.90;59.40
37806;DHT22;25082;50.870;0.022;2024-02-26T13:18:30;18.90;59.40
37806;DHT22;25082;50.870;0.022;2024-02-26T13:21:07;18.90;59.30
37806;DHT22;25082;50.870;0.022;2024-02-26T13:23:34;18.90;59.40
37806;DHT22;25082;50.870;0.022;2024-02-26T13:26:00;18.90;59.20
37806;DHT22;25082;50.870;0.022;2024-02-26T13:28:26;18.90;59.10
37806;DHT22;25082;50.870;0.022;2024-02-26T13:30:57;19.00;59.20
37806;DHT22;25082;50.870;0.022;2024-02-26T13:33:24;19.00;59.30
37806;DHT22;25082;50.870;0.022;2024-02-26T13:35:51;19.00;59.30
37806;DHT22;25082;50.870;0.022;2024-02-26T13:38:17;19.00;59.90
37806;DHT22;25082;50.870;0.022;2024-02-26T13:40:43;19.00;59.40
37806;DHT22;25082;50.870;0.022;2024-02-26T13:43:09;19.00;59.30
37806;DHT22;25082;50.870;0.022;2024-02-26T13:45:36;19.00;59.30
37806;DHT22;25082;50.870;0.022;2024-02-26T13:48:04;19.00;59.30
37806;DHT22;25082;50.870;0.022;2024-02-26T13:50:30;19.00;59.40
37806;DHT22;25082;50.870;0.022;2024-02-26T13:52:56;19.00;59.40
37806;DHT22;25082;50.870;0.022;2024-02-26T13:55:25;19.00;59.50
37806;DHT22;25082;50.870;0.022;2024-02-26T13:57:54;19.00;59.50
37806;DHT22;25082;50.870;0.022;2024-02-26T14:00:20;19.00;59.50
37806;DHT22;25082;50.870;0.022;2024-02-26T14:02:46;19.00;59.50
37806;DHT22;25082;50.870;0.022;2024-02-26T14:05:12;19.00;59.50
37806;DHT22;25082;50.870;0.022;2024-02-26T14:07:39;19.00;59.50
37806;DHT22;25082;50.870;0.022;2024-02-26T14:10:05;18.90;59.30
37806;DHT22;25082;50.870;0.022;2024-02-26T14:12:31;18.90;57.80
37806;DHT22;25082;50.870;0.022;2024-02-26T14:14:57;18.80;57.20
37806;DHT22;25082;50.870;0.022;2024-02-26T14:17:26;18.70;57.40
37806;DHT22;25082;50.870;0.022;2024-02-26T14:19:52;18.70;57.40
37806;DHT22;25082;50.870;0.022;2024-02-26T14:22:18;18.70;57.70
37806;DHT22;25082;50.870;0.022;2024-02-26T14:24:44;18.70;57.70
37806;DHT22;25082;50.870;0.022;2024-02-26T14:27:11;18.80;57.90
37806;DHT22;25082;50.870;0.022;2024-02-26T14:29:42;18.80;58.10
37806;DHT22;25082;50.870;0.022;2024-02-26T14:32:09;18.80;58.20
37806;DHT22;25082;50.870;0.022;2024-02-26T14:34:35;18.80;58.30
37806;DHT22;25082;50.870;0.022;2024-02-26T14:37:01;18.90;58.50
37806;DHT22;25082;50.870;0.022;2024-02-26T14:39:27;18.90;58.90
37806;DHT22;25082;50.870;0.022;2024-02-26T14:41:55;18.90;58.50
37806;DHT22;25082;50.870;0.022;2024-02-26T14:44:20;18.90;58.60
37806;DHT22;25082;50.870;0.022;2024-02-26T14:46:46;18.90;58.40
37806;DHT22;25082;50.870;0.022;2024-02-26T14:49:12;18.90;58.30
37806;DHT22;25082;50.870;0.022;2024-02-26T14:51:38;18.90;58.30
37806;DHT22;25082;50.870;0.022;2024-02-26T14:54:04;18.90;58.40
37806;DHT22;25082;50.870;0.022;2024-02-26T14:56:30;18.90;58.50
37806;DHT22;25082;50.870;0.022;2024-02-26T14:58:56;18.90;58.80
37806;DHT22;25082;50.870;0.022;2024-02-26T15:01:23;18.90;59.00
37806;DHT22;25082;50.870;0.022;2024-02-26T15:03:48;18.90;59.30
37806;DHT22;25082;50.870;0.022;2024-02-26T15:06:14;18.90;59.50
37806;DHT22;25082;50.870;0.022;2024-02-26T15:08:40;18.90;59.40
37806;DHT22;25082;50.870;0.022;2024-02-26T15:11:06;18.90;59.20
37806;DHT22;25082;50.870;0.022;2024-02-26T15:13:33;18.90;59.20
37806;DHT22;25082;50.870;0.022;2024-02-26T15:15:59;18.90;59.30
37806;DHT22;25082;50.870;0.022;2024-02-26T15:18:25;19.00;59.40
37806;DHT22;25082;50.870;0.022;2024-02-26T15:20:51;18.90;59.40
37806;DHT22;25082;50.870;0.022;2024-02-26T15:23:17;19.00;59.50
37806;DHT22;25082;50.870;0.022;2024-02-26T15:25:44;19.00;59.40
37806;DHT22;25082;50.870;0.022;2024-02-26T15:28:09;18.90;59.40
37806;DHT22;25082;50.870;0.022;2024-02-26T15:30:37;18.90;59.30
37806;DHT22;25082;50.870;0.022;2024-02-26T15:33:02;18.90;59.30